ADDS METAR Data INFO
IDs: Format: Raw Decoded Include TAF

Data at: 1903 UTC 21 Apr 2018

METAR for:EBFS (Florennes(AB), --, BX)
Text:EBFS 211846Z AUTO 04003KT 3900 BKN160/// 19/10 Q1018 GRN
Temperature: 19.0°C ( 66°F)
Dewpoint: 10.0°C ( 50°F) [RH = 56%]
Pressure (altimeter):30.06 inches Hg (1018.0 mb)
Winds:from the NE (40 degrees) at 3 MPH (3 knots; 1.5 m/s)
Visibility: 2.42 sm ( 3.89 km)
Ceiling:16000 feet AGL
Clouds: broken clouds at 16000 feet AGL

TAF for:EBFS (Florennes(AB), --, BX)
Text:No data found